createdAt,value
2019-03-10T00:02:11.367Z,4.92
2019-03-10T00:05:17.754Z,5.00
2019-03-10T00:08:24.897Z,5.10
2019-03-10T00:11:31.851Z,5.06
2019-03-10T00:14:38.450Z,4.99
2019-03-10T00:17:45.332Z,5.04
2019-03-10T00:20:51.821Z,4.97
2019-03-10T00:23:58.320Z,5.15
2019-03-10T00:27:05.264Z,5.16
2019-03-10T00:30:12.065Z,5.08
2019-03-10T00:33:18.715Z,5.02
2019-03-10T00:36:25.507Z,5.06
2019-03-10T00:40:07.141Z,5.09
2019-03-10T00:44:05.987Z,5.07
2019-03-10T00:48:02.307Z,5.04
2019-03-10T00:51:31.685Z,5.00
2019-03-10T00:54:38.434Z,4.91
2019-03-10T00:57:45.128Z,4.84
2019-03-10T01:00:52.441Z,4.80
2019-03-10T01:03:58.707Z,4.77
2019-03-10T01:07:05.060Z,4.82
2019-03-10T01:10:11.652Z,4.78
2019-03-10T01:13:19.915Z,4.73
2019-03-10T01:16:26.742Z,4.69
2019-03-10T01:19:34.338Z,4.65
2019-03-10T01:22:41.900Z,4.61
2019-03-10T01:25:48.704Z,4.66
2019-03-10T01:28:55.056Z,4.65
2019-03-10T01:32:37.138Z,4.59
2019-03-10T01:35:43.772Z,4.55
2019-03-10T01:38:50.361Z,4.50
2019-03-10T01:41:57.713Z,4.52
2019-03-10T01:45:04.836Z,4.48
2019-03-10T01:48:11.320Z,4.48
2019-03-10T01:51:17.974Z,4.52
2019-03-10T01:54:24.700Z,4.56
2019-03-10T01:57:31.665Z,4.55
2019-03-10T02:00:38.432Z,4.62
2019-03-10T02:03:45.510Z,4.58
2019-03-10T02:06:52.029Z,4.54
2019-03-10T02:09:58.997Z,4.60
2019-03-10T02:13:06.767Z,4.61
2019-03-10T02:16:13.960Z,4.68
2019-03-10T02:19:20.764Z,4.66
2019-03-10T02:22:27.367Z,4.66
2019-03-10T02:25:34.122Z,4.75
2019-03-10T02:28:40.490Z,4.85
2019-03-10T02:31:48.130Z,4.84
2019-03-10T02:34:55.007Z,4.65
2019-03-10T02:38:02.068Z,4.65
2019-03-10T02:41:08.883Z,4.60
2019-03-10T02:44:15.760Z,4.53
2019-03-10T02:47:22.649Z,4.50
2019-03-10T02:50:29.685Z,4.57
2019-03-10T02:53:36.017Z,4.45
2019-03-10T02:56:42.799Z,4.36
2019-03-10T02:59:49.608Z,4.24
2019-03-10T03:02:56.257Z,4.15
2019-03-10T03:06:02.608Z,4.12
2019-03-10T03:09:09.369Z,4.26
2019-03-10T03:12:15.838Z,4.46
2019-03-10T03:15:22.876Z,4.55
2019-03-10T03:18:29.793Z,4.72
2019-03-10T03:21:43.560Z,4.80
2019-03-10T03:24:46.812Z,4.91
2019-03-10T03:27:53.286Z,4.88
2019-03-10T03:30:59.576Z,5.06
2019-03-10T03:34:05.990Z,5.01
2019-03-10T03:37:15.966Z,5.08
2019-03-10T03:40:22.831Z,5.03
2019-03-10T03:43:29.256Z,5.07
2019-03-10T03:46:36.538Z,5.24
2019-03-10T03:49:43.024Z,5.26
2019-03-10T03:52:49.581Z,5.15
2019-03-10T03:55:56.564Z,5.17
2019-03-10T03:59:02.854Z,5.09
2019-03-10T04:02:13.098Z,5.15
2019-03-10T04:05:20.224Z,5.27
2019-03-10T04:08:26.871Z,5.23
2019-03-10T04:11:33.541Z,5.15
2019-03-10T04:14:41.099Z,5.09
2019-03-10T04:17:47.860Z,4.97
2019-03-10T04:20:54.490Z,5.06
2019-03-10T04:24:01.121Z,4.89
2019-03-10T04:27:08.921Z,4.93
2019-03-10T04:30:15.848Z,5.03
2019-03-10T04:33:22.542Z,4.95
2019-03-10T04:36:29.005Z,5.00
2019-03-10T04:39:35.335Z,4.92
2019-03-10T04:42:41.779Z,4.93
2019-03-10T04:45:48.102Z,4.90
2019-03-10T04:48:58.861Z,5.11
2019-03-10T04:52:05.477Z,5.15
2019-03-10T04:55:23.776Z,5.11
2019-03-10T04:58:30.335Z,5.05
2019-03-10T05:01:37.464Z,5.00
2019-03-10T05:04:44.095Z,5.08
2019-03-10T05:07:50.518Z,5.02
2019-03-10T05:10:57.298Z,4.90
2019-03-10T05:14:04.156Z,4.81
2019-03-10T05:17:10.981Z,4.76
2019-03-10T05:20:17.489Z,4.71
2019-03-10T05:23:45.419Z,4.66
2019-03-10T05:26:52.510Z,4.60
2019-03-10T05:29:59.255Z,4.49
2019-03-10T05:33:05.736Z,4.41
2019-03-10T05:36:12.763Z,4.31
2019-03-10T05:39:19.585Z,4.35
2019-03-10T05:42:25.976Z,4.26
2019-03-10T05:45:32.744Z,4.19
2019-03-10T05:48:39.203Z,4.16
2019-03-10T05:51:45.587Z,4.04
2019-03-10T05:54:51.893Z,4.02
2019-03-10T05:57:58.594Z,4.11
2019-03-10T06:01:04.983Z,4.09
2019-03-10T06:04:11.214Z,3.96
2019-03-10T06:07:17.720Z,3.82
2019-03-10T06:10:24.225Z,3.82
2019-03-10T06:13:30.889Z,3.77
2019-03-10T06:16:37.857Z,3.87
2019-03-10T06:19:44.553Z,3.91
2019-03-10T06:22:51.283Z,3.94
2019-03-10T06:25:57.896Z,3.85
2019-03-10T06:29:04.723Z,3.83
2019-03-10T06:32:11.266Z,3.84
2019-03-10T06:35:17.911Z,3.97
2019-03-10T06:38:24.855Z,3.98
2019-03-10T06:41:34.503Z,3.95
2019-03-10T06:44:40.900Z,4.03
2019-03-10T06:47:47.585Z,4.10
2019-03-10T06:50:53.946Z,3.99
2019-03-10T06:54:00.681Z,3.98
2019-03-10T06:57:07.731Z,4.00
2019-03-10T07:00:14.578Z,4.00
2019-03-10T07:03:21.311Z,3.95
2019-03-10T07:06:27.917Z,4.06
2019-03-10T07:09:34.847Z,4.08
2019-03-10T07:12:41.395Z,4.14
2019-03-10T07:15:48.500Z,4.12
2019-03-10T07:18:55.520Z,4.02
2019-03-10T07:22:02.472Z,4.14
2019-03-10T07:25:09.247Z,4.18
2019-03-10T07:28:21.528Z,4.22
2019-03-10T07:31:46.186Z,4.24
2019-03-10T07:35:26.839Z,4.23
2019-03-10T07:38:54.786Z,4.22
2019-03-10T07:42:20.389Z,4.18
2019-03-10T07:45:42.889Z,4.11
2019-03-10T07:49:07.633Z,4.06
2019-03-10T07:52:39.468Z,4.15
2019-03-10T07:56:08.108Z,4.00
2019-03-10T07:59:45.866Z,3.93
2019-03-10T08:03:11.575Z,4.01
2019-03-10T08:06:27.693Z,4.13
2019-03-10T08:09:59.120Z,4.08
2019-03-10T08:13:11.405Z,4.19
2019-03-10T08:16:36.880Z,4.20
2019-03-10T08:20:05.771Z,4.15
2019-03-10T08:23:22.941Z,4.18
2019-03-10T08:26:48.757Z,4.24
2019-03-10T08:30:08.252Z,4.40
2019-03-10T08:33:31.942Z,4.62
2019-03-10T08:36:48.747Z,4.74
2019-03-10T08:40:17.605Z,4.85
2019-03-10T08:44:01.648Z,4.76
2019-03-10T08:47:34.186Z,4.96
2019-03-10T08:50:47.022Z,4.89
2019-03-10T08:54:24.873Z,5.05
2019-03-10T08:57:50.343Z,5.06
2019-03-10T09:01:21.876Z,4.98
2019-03-10T09:04:46.900Z,5.18
2019-03-10T09:08:13.476Z,5.46
2019-03-10T09:11:39.902Z,5.71
2019-03-10T09:14:55.439Z,5.81
2019-03-10T09:18:33.732Z,6.02
2019-03-10T09:21:52.034Z,6.22
2019-03-10T09:25:24.370Z,6.71
2019-03-10T09:29:08.904Z,7.27
2019-03-10T09:32:39.399Z,7.92
2019-03-10T09:36:02.191Z,8.31
2019-03-10T09:39:30.103Z,8.51
2019-03-10T09:43:08.988Z,8.78
2019-03-10T09:46:24.897Z,8.34
2019-03-10T09:49:41.240Z,9.08
2019-03-10T09:53:05.473Z,9.16
2019-03-10T09:56:40.006Z,9.26
2019-03-10T10:00:09.244Z,9.20
2019-03-10T10:03:31.070Z,8.96
2019-03-10T10:06:57.329Z,8.99
2019-03-10T10:13:45.061Z,9.45
2019-03-10T10:17:10.076Z,9.15
2019-03-10T10:20:38.921Z,9.28
2019-03-10T10:24:04.163Z,9.29
2019-03-10T10:27:35.464Z,9.52
2019-03-10T10:30:55.342Z,9.96
2019-03-10T10:34:36.867Z,9.92
2019-03-10T10:38:02.613Z,9.74
2019-03-10T10:41:29.116Z,9.57
2019-03-10T10:44:56.190Z,9.74
2019-03-10T10:48:26.106Z,10.08
2019-03-10T10:51:52.484Z,10.28
2019-03-10T10:55:11.010Z,10.47
2019-03-10T10:58:34.373Z,10.47
2019-03-10T11:01:48.203Z,10.54
2019-03-10T11:05:06.106Z,10.92
2019-03-10T11:08:36.135Z,10.09
2019-03-10T11:12:20.311Z,9.99
2019-03-10T11:15:44.876Z,9.56
2019-03-10T11:19:01.620Z,9.81
2019-03-10T11:22:33.609Z,10.52
2019-03-10T11:26:01.990Z,10.63
2019-03-10T11:29:19.008Z,10.46
2019-03-10T11:32:42.569Z,10.51
2019-03-10T11:35:57.112Z,10.28
2019-03-10T11:39:29.343Z,10.09
2019-03-10T11:42:42.158Z,9.86
2019-03-10T11:46:22.686Z,9.62
2019-03-10T11:50:04.203Z,9.49
2019-03-10T11:53:19.437Z,9.42
2019-03-10T11:56:32.603Z,10.23
2019-03-10T11:59:44.632Z,10.64
2019-03-10T12:03:02.588Z,10.93
2019-03-10T12:06:30.795Z,11.14
2019-03-10T12:09:37.740Z,11.13
2019-03-10T12:12:46.245Z,11.55
2019-03-10T12:15:53.319Z,11.84
2019-03-10T12:19:01.075Z,11.76
2019-03-10T12:22:09.052Z,11.62
2019-03-10T12:25:16.566Z,11.23
2019-03-10T12:28:25.412Z,11.19
2019-03-10T12:31:40.645Z,11.27
2019-03-10T12:34:47.720Z,11.05
2019-03-10T12:37:58.161Z,10.83
2019-03-10T12:41:06.280Z,10.65
2019-03-10T12:44:13.429Z,10.53
2019-03-10T12:47:20.331Z,10.22
2019-03-10T12:50:27.101Z,10.41
2019-03-10T12:53:33.966Z,10.48
2019-03-10T12:56:41.078Z,10.53
2019-03-10T12:59:48.559Z,10.50
2019-03-10T13:02:55.448Z,10.77
2019-03-10T13:06:02.971Z,10.97
2019-03-10T13:09:11.331Z,11.49
2019-03-10T13:12:18.616Z,11.28
2019-03-10T13:15:25.787Z,11.34
2019-03-10T13:18:32.643Z,11.79
2019-03-10T13:21:44.151Z,11.91
2019-03-10T13:24:51.510Z,11.50
2019-03-10T13:27:58.668Z,11.39
2019-03-10T13:31:05.591Z,11.44
2019-03-10T13:34:14.216Z,11.37
2019-03-10T13:37:21.565Z,11.24
2019-03-10T13:40:29.058Z,11.22
2019-03-10T13:43:36.221Z,11.11
2019-03-10T13:46:44.107Z,11.22
2019-03-10T13:49:54.995Z,11.12
2019-03-10T13:53:02.023Z,10.97
2019-03-10T13:56:09.620Z,10.88
2019-03-10T13:59:16.622Z,10.84
2019-03-10T14:02:23.222Z,10.83
2019-03-10T14:05:32.217Z,10.95
2019-03-10T14:08:39.007Z,10.93
2019-03-10T14:11:46.258Z,10.85
2019-03-10T14:14:53.000Z,10.87
2019-03-10T14:18:01.235Z,10.95
2019-03-10T14:21:09.103Z,11.01
2019-03-10T14:24:15.879Z,10.87
2019-03-10T14:27:22.927Z,10.67
2019-03-10T14:30:30.644Z,10.55
2019-03-10T14:33:37.830Z,10.37
2019-03-10T14:36:45.325Z,10.08
2019-03-10T14:39:55.331Z,10.02
2019-03-10T14:43:05.366Z,9.91
2019-03-10T14:46:15.931Z,9.81
2019-03-10T14:49:23.738Z,9.59
2019-03-10T14:52:31.959Z,9.33
2019-03-10T14:55:39.864Z,9.26
2019-03-10T14:58:46.259Z,9.00
2019-03-10T15:01:54.211Z,8.82
2019-03-10T15:05:02.129Z,8.77
2019-03-10T15:08:11.217Z,8.85
2019-03-10T15:11:19.692Z,8.95
2019-03-10T15:14:28.436Z,9.34
2019-03-10T15:17:36.867Z,9.10
2019-03-10T15:20:46.567Z,9.06
2019-03-10T15:23:55.102Z,8.89
2019-03-10T15:27:04.375Z,8.92
2019-03-10T15:30:17.088Z,8.65
2019-03-10T15:33:25.491Z,8.50
2019-03-10T15:36:33.043Z,8.53
2019-03-10T15:39:42.076Z,8.59
2019-03-10T15:42:49.704Z,8.56
2019-03-10T15:45:58.075Z,8.54
2019-03-10T15:49:08.181Z,8.42
2019-03-10T15:52:14.849Z,8.40
2019-03-10T15:55:23.841Z,8.25
2019-03-10T15:58:31.192Z,8.15
2019-03-10T16:01:48.646Z,8.08
2019-03-10T16:05:00.444Z,7.88
2019-03-10T16:08:09.321Z,7.98
2019-03-10T16:11:18.328Z,8.05
2019-03-10T16:14:26.260Z,8.04
2019-03-10T16:17:34.530Z,8.05
2019-03-10T16:20:41.641Z,8.03
2019-03-10T16:23:48.980Z,8.03
2019-03-10T16:27:00.705Z,7.98
2019-03-10T16:30:14.824Z,7.70
2019-03-10T16:33:25.422Z,7.57
2019-03-10T16:36:32.998Z,7.28
2019-03-10T16:39:40.969Z,7.38
2019-03-10T16:42:48.905Z,7.37
2019-03-10T16:45:56.506Z,7.39
2019-03-10T16:49:03.943Z,7.28
2019-03-10T16:52:16.232Z,7.14
2019-03-10T16:55:28.086Z,7.11
2019-03-10T16:58:38.845Z,6.76
2019-03-10T17:01:47.157Z,6.77
2019-03-10T17:04:54.298Z,6.79
2019-03-10T17:08:05.720Z,6.66
2019-03-10T17:11:15.590Z,6.59
2019-03-10T17:14:24.470Z,6.67
2019-03-10T17:17:31.538Z,6.71
2019-03-10T17:20:38.719Z,6.56
2019-03-10T17:23:45.508Z,6.61
2019-03-10T17:26:52.555Z,6.59
2019-03-10T17:29:59.348Z,6.64
2019-03-10T17:33:06.221Z,6.68
2019-03-10T17:36:12.937Z,6.71
2019-03-10T17:39:20.818Z,6.52
2019-03-10T17:42:27.873Z,6.42
2019-03-10T17:45:34.382Z,6.32
2019-03-10T17:48:40.907Z,6.29
2019-03-10T17:51:48.850Z,6.16
2019-03-10T17:54:55.917Z,6.03
2019-03-10T17:58:02.710Z,5.94
2019-03-10T18:01:10.299Z,5.89
2019-03-10T18:04:19.677Z,5.94
2019-03-10T18:07:31.721Z,5.76
2019-03-10T18:10:40.236Z,5.95
2019-03-10T18:13:56.686Z,5.79
2019-03-10T18:17:05.334Z,5.84
2019-03-10T18:20:15.267Z,5.78
2019-03-10T18:23:25.865Z,5.80
2019-03-10T18:26:37.506Z,5.98
2019-03-10T18:29:47.985Z,5.93
2019-03-10T18:33:00.853Z,5.92
2019-03-10T18:36:08.724Z,6.01
2019-03-10T18:39:20.313Z,5.89
2019-03-10T18:42:34.253Z,5.95
2019-03-10T18:45:51.901Z,5.98
2019-03-10T18:49:03.117Z,6.03
2019-03-10T18:52:16.560Z,5.98
2019-03-10T18:55:27.194Z,5.98
2019-03-10T18:58:36.694Z,5.96
2019-03-10T19:01:50.400Z,6.03
2019-03-10T19:05:02.666Z,6.10
2019-03-10T19:08:15.111Z,6.04
2019-03-10T19:11:27.217Z,6.05
2019-03-10T19:14:37.513Z,6.10
2019-03-10T19:17:44.188Z,6.10
2019-03-10T19:20:50.770Z,5.99
2019-03-10T19:23:57.574Z,5.97
2019-03-10T19:27:04.710Z,5.84
2019-03-10T19:30:13.863Z,5.73
2019-03-10T19:33:20.356Z,5.75
2019-03-10T19:36:30.221Z,5.60
2019-03-10T19:39:37.694Z,5.29
2019-03-10T19:42:44.655Z,5.20
2019-03-10T19:45:51.996Z,5.14
2019-03-10T19:48:59.271Z,5.05
2019-03-10T19:52:06.801Z,5.10
2019-03-10T19:55:19.878Z,5.05
2019-03-10T19:58:27.038Z,4.88
2019-03-10T20:01:36.526Z,4.96
2019-03-10T20:04:44.207Z,4.89
2019-03-10T20:07:51.778Z,4.80
2019-03-10T20:10:58.486Z,4.77
2019-03-10T20:14:06.081Z,4.66
2019-03-10T20:17:12.596Z,4.51
2019-03-10T20:20:21.944Z,4.34
2019-03-10T20:23:30.420Z,4.34
2019-03-10T20:26:37.733Z,4.24
2019-03-10T20:29:44.802Z,4.18
2019-03-10T20:32:51.567Z,4.10
2019-03-10T20:35:58.176Z,4.02
2019-03-10T20:39:09.020Z,3.91
2019-03-10T20:42:17.486Z,3.84
2019-03-10T20:45:24.650Z,3.72
2019-03-10T20:48:31.701Z,3.59
2019-03-10T20:51:41.590Z,3.58
2019-03-10T20:54:48.715Z,3.60
2019-03-10T20:57:55.717Z,3.54
2019-03-10T21:01:02.747Z,3.41
2019-03-10T21:04:09.467Z,3.33
2019-03-10T21:07:15.771Z,3.36
2019-03-10T21:10:27.542Z,3.32
2019-03-10T21:13:34.592Z,3.30
2019-03-10T21:16:41.606Z,3.36
2019-03-10T21:19:48.932Z,3.38
2019-03-10T21:22:56.239Z,3.40
2019-03-10T21:26:03.453Z,3.14
2019-03-10T21:29:11.432Z,3.06
2019-03-10T21:32:17.963Z,2.85
2019-03-10T21:35:25.884Z,2.43
2019-03-10T21:38:32.422Z,2.18
2019-03-10T21:41:42.043Z,1.93
2019-03-10T21:44:48.831Z,2.00
2019-03-10T21:47:56.159Z,2.00
2019-03-10T21:51:03.257Z,1.82
2019-03-10T21:54:10.163Z,1.84
2019-03-10T21:57:16.770Z,1.75
2019-03-10T22:00:24.789Z,1.88
2019-03-10T22:03:31.962Z,1.83
2019-03-10T22:06:42.708Z,1.93
2019-03-10T22:09:50.874Z,2.01
2019-03-10T22:12:58.157Z,2.22
2019-03-10T22:16:04.811Z,2.33
2019-03-10T22:19:21.929Z,2.41
2019-03-10T22:22:19.897Z,2.04
2019-03-10T22:25:26.993Z,1.81
2019-03-10T22:28:33.270Z,1.61
2019-03-10T22:31:40.062Z,1.66
2019-03-10T22:34:47.110Z,1.78
2019-03-10T22:37:53.977Z,1.80
2019-03-10T22:41:00.693Z,1.76
2019-03-10T22:44:07.171Z,1.86
2019-03-10T22:47:14.091Z,1.72
2019-03-10T22:50:20.998Z,1.74
2019-03-10T22:53:28.201Z,1.59
2019-03-10T22:56:35.750Z,1.66
2019-03-10T22:59:42.537Z,1.77
2019-03-10T23:02:49.136Z,1.56
2019-03-10T23:05:55.732Z,1.69
2019-03-10T23:09:02.253Z,1.57
2019-03-10T23:12:10.740Z,1.54
2019-03-10T23:15:17.617Z,1.61
2019-03-10T23:18:24.217Z,1.53
2019-03-10T23:21:32.049Z,1.59
2019-03-10T23:24:39.186Z,1.65
2019-03-10T23:27:45.397Z,1.61
2019-03-10T23:30:52.278Z,1.61
2019-03-10T23:33:58.976Z,1.45
2019-03-10T23:37:05.463Z,1.43
2019-03-10T23:40:12.205Z,1.44
2019-03-10T23:43:18.615Z,1.34
2019-03-10T23:46:25.449Z,1.08
2019-03-10T23:49:32.289Z,1.37
2019-03-10T23:52:39.130Z,1.43
2019-03-10T23:55:45.839Z,1.66
2019-03-10T23:58:52.482Z,1.72
